sensor_id;sensor_type;location;lat;lon;timestamp;P1;durP1;ratioP1;P2;durP2;ratioP2
16600;SDS011;34891;48.164;11.572;2023-04-21T00:10:44;24.48;;;10.40;;
16600;SDS011;34891;48.164;11.572;2023-04-21T00:15:47;15.70;;;6.63;;
16600;SDS011;34891;48.164;11.572;2023-04-21T00:30:56;27.23;;;9.50;;
16600;SDS011;34891;48.164;11.572;2023-04-21T00:41:01;16.92;;;6.20;;
16600;SDS011;34891;48.164;11.572;2023-04-21T00:46:05;30.55;;;10.05;;
16600;SDS011;34891;48.164;11.572;2023-04-21T00:51:08;25.52;;;8.77;;
16600;SDS011;34891;48.164;11.572;2023-04-21T01:06:18;30.35;;;10.95;;
16600;SDS011;34891;48.164;11.572;2023-04-21T01:26:33;31.77;;;9.27;;
16600;SDS011;34891;48.164;11.572;2023-04-21T01:36:39;30.52;;;10.45;;
16600;SDS011;34891;48.164;11.572;2023-04-21T01:41:47;28.50;;;10.15;;
16600;SDS011;34891;48.164;11.572;2023-04-21T03:07:46;25.73;;;9.63;;
16600;SDS011;34891;48.164;11.572;2023-04-21T03:12:48;31.35;;;10.40;;
16600;SDS011;34891;48.164;11.572;2023-04-21T03:27:58;16.05;;;6.85;;
16600;SDS011;34891;48.164;11.572;2023-04-21T03:38:05;31.13;;;10.57;;
16600;SDS011;34891;48.164;11.572;2023-04-21T03:43:08;36.47;;;11.73;;
16600;SDS011;34891;48.164;11.572;2023-04-21T03:48:12;31.23;;;11.63;;
16600;SDS011;34891;48.164;11.572;2023-04-21T03:58:19;28.58;;;10.23;;
16600;SDS011;34891;48.164;11.572;2023-04-21T04:03:22;26.52;;;9.70;;
16600;SDS011;34891;48.164;11.572;2023-04-21T04:08:25;29.67;;;10.15;;
16600;SDS011;34891;48.164;11.572;2023-04-21T04:13:30;30.52;;;10.65;;
16600;SDS011;34891;48.164;11.572;2023-04-21T04:18:35;35.63;;;12.07;;
16600;SDS011;34891;48.164;11.572;2023-04-21T04:23:48;30.60;;;10.95;;
16600;SDS011;34891;48.164;11.572;2023-04-21T04:28:53;31.08;;;10.57;;
16600;SDS011;34891;48.164;11.572;2023-04-21T04:33:56;26.08;;;9.48;;
16600;SDS011;34891;48.164;11.572;2023-04-21T04:38:59;24.23;;;9.60;;
16600;SDS011;34891;48.164;11.572;2023-04-21T04:44:03;27.58;;;10.52;;
16600;SDS011;34891;48.164;11.572;2023-04-21T04:49:06;26.92;;;10.50;;
16600;SDS011;34891;48.164;11.572;2023-04-21T04:54:09;25.63;;;9.50;;
16600;SDS011;34891;48.164;11.572;2023-04-21T04:59:13;25.88;;;10.25;;
16600;SDS011;34891;48.164;11.572;2023-04-21T05:04:16;30.13;;;11.73;;
16600;SDS011;34891;48.164;11.572;2023-04-21T05:09:26;32.55;;;12.20;;
16600;SDS011;34891;48.164;11.572;2023-04-21T05:14:31;34.60;;;11.43;;
16600;SDS011;34891;48.164;11.572;2023-04-21T05:19:34;29.67;;;11.15;;
16600;SDS011;34891;48.164;11.572;2023-04-21T05:24:36;28.77;;;11.55;;
16600;SDS011;34891;48.164;11.572;2023-04-21T05:29:44;30.73;;;12.00;;
16600;SDS011;34891;48.164;11.572;2023-04-21T05:34:46;28.30;;;10.70;;
16600;SDS011;34891;48.164;11.572;2023-04-21T05:39:50;25.50;;;10.02;;
16600;SDS011;34891;48.164;11.572;2023-04-21T05:44:55;23.92;;;9.75;;
16600;SDS011;34891;48.164;11.572;2023-04-21T05:49:59;23.77;;;10.45;;
16600;SDS011;34891;48.164;11.572;2023-04-21T05:55:01;9.95;;;4.00;;
16600;SDS011;34891;48.164;11.572;2023-04-21T06:00:06;23.13;;;9.98;;
16600;SDS011;34891;48.164;11.572;2023-04-21T06:05:09;21.63;;;9.32;;
16600;SDS011;34891;48.164;11.572;2023-04-21T06:10:12;25.85;;;9.82;;
16600;SDS011;34891;48.164;11.572;2023-04-21T06:15:17;13.27;;;3.90;;
16600;SDS011;34891;48.164;11.572;2023-04-21T06:25:23;20.65;;;8.63;;
16600;SDS011;34891;48.164;11.572;2023-04-21T06:30:27;19.15;;;7.93;;
16600;SDS011;34891;48.164;11.572;2023-04-21T06:35:32;23.55;;;13.00;;
16600;SDS011;34891;48.164;11.572;2023-04-21T06:40:36;18.67;;;9.70;;
16600;SDS011;34891;48.164;11.572;2023-04-21T06:45:41;22.92;;;9.57;;
16600;SDS011;34891;48.164;11.572;2023-04-21T06:55:46;19.35;;;7.85;;
16600;SDS011;34891;48.164;11.572;2023-04-21T07:00:51;19.10;;;8.05;;
16600;SDS011;34891;48.164;11.572;2023-04-21T07:05:53;16.13;;;7.47;;
16600;SDS011;34891;48.164;11.572;2023-04-21T07:10:56;14.23;;;7.30;;
16600;SDS011;34891;48.164;11.572;2023-04-21T07:16:02;18.05;;;8.95;;
16600;SDS011;34891;48.164;11.572;2023-04-21T07:26:08;11.95;;;4.93;;
16600;SDS011;34891;48.164;11.572;2023-04-21T07:31:12;20.73;;;8.50;;
16600;SDS011;34891;48.164;11.572;2023-04-21T07:36:16;14.35;;;7.70;;
16600;SDS011;34891;48.164;11.572;2023-04-21T07:41:18;14.05;;;7.47;;
16600;SDS011;34891;48.164;11.572;2023-04-21T07:46:32;14.37;;;7.83;;
16600;SDS011;34891;48.164;11.572;2023-04-21T07:51:35;13.80;;;7.88;;
16600;SDS011;34891;48.164;11.572;2023-04-21T07:56:38;12.20;;;7.05;;
16600;SDS011;34891;48.164;11.572;2023-04-21T08:01:42;14.18;;;7.22;;
16600;SDS011;34891;48.164;11.572;2023-04-21T08:06:45;14.30;;;7.55;;
16600;SDS011;34891;48.164;11.572;2023-04-21T08:11:48;11.93;;;7.30;;
16600;SDS011;34891;48.164;11.572;2023-04-21T08:16:52;12.75;;;7.32;;
16600;SDS011;34891;48.164;11.572;2023-04-21T08:21:58;11.77;;;6.93;;
16600;SDS011;34891;48.164;11.572;2023-04-21T08:27:00;12.80;;;8.02;;
16600;SDS011;34891;48.164;11.572;2023-04-21T08:32:05;13.52;;;8.65;;
16600;SDS011;34891;48.164;11.572;2023-04-21T08:37:08;11.30;;;7.97;;
16600;SDS011;34891;48.164;11.572;2023-04-21T08:42:12;12.32;;;8.40;;
16600;SDS011;34891;48.164;11.572;2023-04-21T08:47:16;11.65;;;8.95;;
16600;SDS011;34891;48.164;11.572;2023-04-21T08:52:19;10.13;;;7.43;;
16600;SDS011;34891;48.164;11.572;2023-04-21T08:57:22;11.48;;;9.15;;
16600;SDS011;34891;48.164;11.572;2023-04-21T09:17:34;9.68;;;7.80;;
16600;SDS011;34891;48.164;11.572;2023-04-21T09:22:40;12.35;;;8.82;;
16600;SDS011;34891;48.164;11.572;2023-04-21T09:52:59;11.95;;;8.77;;
16600;SDS011;34891;48.164;11.572;2023-04-21T09:58:05;12.70;;;9.88;;
16600;SDS011;34891;48.164;11.572;2023-04-21T10:03:09;14.35;;;10.50;;
16600;SDS011;34891;48.164;11.572;2023-04-21T10:08:15;11.23;;;8.60;;
16600;SDS011;34891;48.164;11.572;2023-04-21T10:43:47;14.27;;;10.68;;
16600;SDS011;34891;48.164;11.572;2023-04-21T10:48:52;15.77;;;11.63;;
16600;SDS011;34891;48.164;11.572;2023-04-21T10:53:55;12.10;;;9.98;;
16600;SDS011;34891;48.164;11.572;2023-04-21T10:59:00;13.57;;;11.73;;
16600;SDS011;34891;48.164;11.572;2023-04-21T14:36:08;3.28;;;2.22;;
16600;SDS011;34891;48.164;11.572;2023-04-21T14:41:11;3.13;;;2.53;;
16600;SDS011;34891;48.164;11.572;2023-04-21T14:46:24;3.28;;;2.28;;
16600;SDS011;34891;48.164;11.572;2023-04-21T14:51:28;5.30;;;2.50;;
16600;SDS011;34891;48.164;11.572;2023-04-21T15:06:43;3.55;;;2.05;;
16600;SDS011;34891;48.164;11.572;2023-04-21T15:11:45;4.22;;;1.90;;
16600;SDS011;34891;48.164;11.572;2023-04-21T15:16:48;3.08;;;2.13;;
16600;SDS011;34891;48.164;11.572;2023-04-21T15:21:53;4.32;;;2.00;;
16600;SDS011;34891;48.164;11.572;2023-04-21T15:26:56;5.50;;;2.50;;
16600;SDS011;34891;48.164;11.572;2023-04-21T15:32:08;3.35;;;1.77;;
16600;SDS011;34891;48.164;11.572;2023-04-21T15:37:13;2.60;;;1.90;;
16600;SDS011;34891;48.164;11.572;2023-04-21T15:42:17;2.25;;;1.98;;
16600;SDS011;34891;48.164;11.572;2023-04-21T15:47:21;2.88;;;1.85;;
16600;SDS011;34891;48.164;11.572;2023-04-21T15:52:25;2.88;;;1.80;;
16600;SDS011;34891;48.164;11.572;2023-04-21T15:57:30;4.82;;;2.05;;
16600;SDS011;34891;48.164;11.572;2023-04-21T16:02:34;2.95;;;1.63;;
16600;SDS011;34891;48.164;11.572;2023-04-21T16:07:38;3.13;;;1.80;;
16600;SDS011;34891;48.164;11.572;2023-04-21T16:12:44;4.90;;;2.10;;
16600;SDS011;34891;48.164;11.572;2023-04-21T16:17:51;2.38;;;1.70;;
16600;SDS011;34891;48.164;11.572;2023-04-21T16:22:55;2.85;;;1.73;;
16600;SDS011;34891;48.164;11.572;2023-04-21T16:27:58;2.85;;;1.92;;
16600;SDS011;34891;48.164;11.572;2023-04-21T16:33:01;4.10;;;2.00;;
16600;SDS011;34891;48.164;11.572;2023-04-21T16:38:05;4.45;;;1.90;;
16600;SDS011;34891;48.164;11.572;2023-04-21T16:43:08;3.38;;;2.00;;
16600;SDS011;34891;48.164;11.572;2023-04-21T16:48:12;3.72;;;1.90;;
16600;SDS011;34891;48.164;11.572;2023-04-21T16:53:16;3.33;;;1.92;;
16600;SDS011;34891;48.164;11.572;2023-04-21T16:58:19;2.95;;;1.90;;
16600;SDS011;34891;48.164;11.572;2023-04-21T17:03:24;2.38;;;1.63;;
16600;SDS011;34891;48.164;11.572;2023-04-21T17:08:30;3.60;;;1.67;;
16600;SDS011;34891;48.164;11.572;2023-04-21T17:13:34;2.75;;;1.90;;
16600;SDS011;34891;48.164;11.572;2023-04-21T17:18:39;4.18;;;1.88;;
16600;SDS011;34891;48.164;11.572;2023-04-21T17:23:43;2.67;;;1.95;;
16600;SDS011;34891;48.164;11.572;2023-04-21T17:28:48;6.30;;;2.90;;
16600;SDS011;34891;48.164;11.572;2023-04-21T17:33:51;3.55;;;2.33;;
16600;SDS011;34891;48.164;11.572;2023-04-21T17:38:55;3.72;;;2.20;;
16600;SDS011;34891;48.164;11.572;2023-04-21T17:43:59;4.22;;;2.50;;
16600;SDS011;34891;48.164;11.572;2023-04-21T17:49:02;5.60;;;2.20;;
16600;SDS011;34891;48.164;11.572;2023-04-21T17:54:06;4.83;;;2.43;;
16600;SDS011;34891;48.164;11.572;2023-04-21T17:59:09;4.57;;;2.40;;
16600;SDS011;34891;48.164;11.572;2023-04-21T18:04:12;3.40;;;2.28;;
16600;SDS011;34891;48.164;11.572;2023-04-21T18:09:18;5.22;;;2.55;;
16600;SDS011;34891;48.164;11.572;2023-04-21T18:14:21;3.70;;;2.30;;
16600;SDS011;34891;48.164;11.572;2023-04-21T18:24:29;5.43;;;2.92;;
16600;SDS011;34891;48.164;11.572;2023-04-21T18:29:32;5.57;;;3.00;;
16600;SDS011;34891;48.164;11.572;2023-04-21T18:34:35;5.80;;;2.97;;
16600;SDS011;34891;48.164;11.572;2023-04-21T18:39:41;5.40;;;3.20;;
16600;SDS011;34891;48.164;11.572;2023-04-21T18:44:43;9.70;;;2.97;;
16600;SDS011;34891;48.164;11.572;2023-04-21T18:49:46;4.82;;;2.70;;
16600;SDS011;34891;48.164;11.572;2023-04-21T18:54:51;4.20;;;2.40;;
16600;SDS011;34891;48.164;11.572;2023-04-21T18:59:54;7.03;;;3.38;;
16600;SDS011;34891;48.164;11.572;2023-04-21T19:04:57;6.47;;;3.40;;
16600;SDS011;34891;48.164;11.572;2023-04-21T19:10:05;7.47;;;3.22;;
16600;SDS011;34891;48.164;11.572;2023-04-21T19:15:09;6.30;;;3.00;;
16600;SDS011;34891;48.164;11.572;2023-04-21T19:20:22;7.75;;;3.25;;
16600;SDS011;34891;48.164;11.572;2023-04-21T19:25:26;6.10;;;3.10;;
16600;SDS011;34891;48.164;11.572;2023-04-21T19:30:29;5.03;;;2.63;;
16600;SDS011;34891;48.164;11.572;2023-04-21T19:35:32;3.45;;;1.52;;
16600;SDS011;34891;48.164;11.572;2023-04-21T19:40:36;1.60;;;1.00;;
16600;SDS011;34891;48.164;11.572;2023-04-21T19:45:39;1.77;;;0.68;;
16600;SDS011;34891;48.164;11.572;2023-04-21T19:50:42;1.17;;;0.80;;
16600;SDS011;34891;48.164;11.572;2023-04-21T19:55:46;1.23;;;0.70;;
16600;SDS011;34891;48.164;11.572;2023-04-21T20:00:53;0.50;;;0.47;;
16600;SDS011;34891;48.164;11.572;2023-04-21T20:05:56;1.17;;;0.80;;
16600;SDS011;34891;48.164;11.572;2023-04-21T20:11:00;1.13;;;0.60;;
16600;SDS011;34891;48.164;11.572;2023-04-21T20:16:03;1.20;;;0.73;;
16600;SDS011;34891;48.164;11.572;2023-04-21T20:21:07;0.70;;;0.70;;
16600;SDS011;34891;48.164;11.572;2023-04-21T20:26:12;0.55;;;0.43;;
16600;SDS011;34891;48.164;11.572;2023-04-21T20:31:22;2.03;;;1.00;;
16600;SDS011;34891;48.164;11.572;2023-04-21T20:36:26;1.02;;;0.60;;
16600;SDS011;34891;48.164;11.572;2023-04-21T20:41:30;1.43;;;0.70;;
16600;SDS011;34891;48.164;11.572;2023-04-21T20:46:33;2.47;;;0.75;;
16600;SDS011;34891;48.164;11.572;2023-04-21T20:51:36;1.20;;;0.80;;
16600;SDS011;34891;48.164;11.572;2023-04-21T20:56:44;1.20;;;1.00;;
16600;SDS011;34891;48.164;11.572;2023-04-21T21:01:47;1.33;;;0.90;;
16600;SDS011;34891;48.164;11.572;2023-04-21T21:06:50;2.83;;;1.00;;
16600;SDS011;34891;48.164;11.572;2023-04-21T21:11:55;3.35;;;1.30;;
16600;SDS011;34891;48.164;11.572;2023-04-21T21:16:59;1.55;;;0.80;;
16600;SDS011;34891;48.164;11.572;2023-04-21T21:22:03;3.78;;;1.60;;
16600;SDS011;34891;48.164;11.572;2023-04-21T21:27:08;2.05;;;1.00;;
16600;SDS011;34891;48.164;11.572;2023-04-21T21:32:11;8.35;;;4.40;;
16600;SDS011;34891;48.164;11.572;2023-04-21T21:37:14;3.72;;;1.80;;
16600;SDS011;34891;48.164;11.572;2023-04-21T21:42:18;2.45;;;1.27;;
16600;SDS011;34891;48.164;11.572;2023-04-21T21:52:24;4.50;;;1.38;;
16600;SDS011;34891;48.164;11.572;2023-04-21T21:57:31;7.85;;;3.17;;
16600;SDS011;34891;48.164;11.572;2023-04-21T22:02:34;3.60;;;1.50;;
16600;SDS011;34891;48.164;11.572;2023-04-21T22:07:37;2.70;;;1.40;;
16600;SDS011;34891;48.164;11.572;2023-04-21T22:12:44;4.40;;;1.30;;
16600;SDS011;34891;48.164;11.572;2023-04-21T22:22:49;2.38;;;1.30;;
16600;SDS011;34891;48.164;11.572;2023-04-21T22:27:55;2.03;;;1.13;;
16600;SDS011;34891;48.164;11.572;2023-04-21T22:32:58;3.30;;;1.20;;
16600;SDS011;34891;48.164;11.572;2023-04-21T22:38:01;2.30;;;1.30;;
16600;SDS011;34891;48.164;11.572;2023-04-21T22:43:05;1.60;;;1.00;;
16600;SDS011;34891;48.164;11.572;2023-04-21T22:48:09;2.58;;;1.40;;
16600;SDS011;34891;48.164;11.572;2023-04-21T22:53:14;3.28;;;1.50;;
16600;SDS011;34891;48.164;11.572;2023-04-21T22:58:19;3.40;;;1.60;;
16600;SDS011;34891;48.164;11.572;2023-04-21T23:03:21;5.03;;;1.60;;
16600;SDS011;34891;48.164;11.572;2023-04-21T23:08:25;2.63;;;1.35;;
16600;SDS011;34891;48.164;11.572;2023-04-21T23:13:38;4.57;;;1.75;;
16600;SDS011;34891;48.164;11.572;2023-04-21T23:18:41;4.13;;;1.50;;
16600;SDS011;34891;48.164;11.572;2023-04-21T23:23:44;5.25;;;1.80;;
16600;SDS011;34891;48.164;11.572;2023-04-21T23:28:48;3.95;;;1.67;;
16600;SDS011;34891;48.164;11.572;2023-04-21T23:33:52;4.75;;;1.83;;
16600;SDS011;34891;48.164;11.572;2023-04-21T23:38:54;3.85;;;1.85;;
16600;SDS011;34891;48.164;11.572;2023-04-21T23:43:59;4.30;;;1.93;;
16600;SDS011;34891;48.164;11.572;2023-04-21T23:49:02;3.55;;;1.65;;
16600;SDS011;34891;48.164;11.572;2023-04-21T23:54:05;5.40;;;1.70;;
16600;SDS011;34891;48.164;11.572;2023-04-21T23:59:10;4.22;;;1.60;;
